Terminal Aerodrome Forecast
Issued by NWS Grand Forks, ND

Home | Current Version | Previous Version | Text Only | Print | Product List | Glossary Off
Versions: 1 2 3 4 5 6 7 8 9 10 11 12 13 14 15

000
FTUS43 KFGF 231735 AAA
TAFFAR
TAF AMD
KFAR 231735Z 2318/2418 14010KT P6SM VCTS BKN080CB
      TEMPO 2318/2320 5SM -TSRA BKN035CB
     FM232100 16010KT P6SM VCTS BKN060CB
     FM240000 19009KT P6SM SCT090
     FM240300 24009KT P6SM FEW250
     FM241500 30014G20KT P6SM FEW250=

USA.gov is the U.S. government's official web portal to all federal, state and local government web resources and services.